Time;durP1;ratioP1;P1;durP2;ratioP2;P2;SDS_P1;SDS_P2;PMS_P1;PMS_P2;Temp;Humidity;BMP_temperature;BMP_pressure;BME280_temperature;BME280_humidity;BME280_pressure;Samples;Min_cycle;Max_cycle;Signal;HPM_P1;HPM_P2
2022/12/05 00:01:35;;;;;;;73.43;39.00;;;3.50;99.90;;;;;;4988874;28;20045;-77
2022/12/05 00:04:05;;;;;;;77.57;43.37;;;3.50;99.90;;;;;;4982028;28;20049;-79
2022/12/05 00:06:33;;;;;;;93.65;49.03;;;3.50;99.90;;;;;;4965338;28;20042;-78
2022/12/05 00:09:00;;;;;;;86.57;48.67;;;3.50;99.90;;;;;;4969599;28;20038;-79
2022/12/05 00:11:28;;;;;;;76.27;43.57;;;3.50;99.90;;;;;;4987682;28;20049;-78
2022/12/05 00:13:56;;;;;;;74.10;41.40;;;3.50;99.90;;;;;;4972886;28;20042;-79
2022/12/05 00:16:25;;;;;;;80.73;44.53;;;3.50;99.90;;;;;;4963446;28;20080;-78
2022/12/05 00:18:51;;;;;;;76.37;42.70;;;3.50;99.90;;;;;;4967328;28;20041;-79
2022/12/05 00:21:24;;;;;;;68.50;38.63;;;3.50;99.90;;;;;;4987487;28;20038;-78
2022/12/05 00:23:51;;;;;;;79.95;43.67;;;3.50;99.90;;;;;;4986233;28;20037;-79
2022/12/05 00:26:18;;;;;;;83.37;42.67;;;3.50;99.90;;;;;;4982699;28;20042;-79
2022/12/05 00:28:45;;;;;;;75.35;41.10;;;3.50;99.90;;;;;;4983520;28;20034;-78
2022/12/05 00:31:15;;;;;;;89.43;48.47;;;3.50;99.90;;;;;;4988463;28;20374;-80
2022/12/05 00:33:42;;;;;;;94.87;48.17;;;3.50;99.90;;;;;;4970928;28;20031;-79
2022/12/05 00:36:12;;;;;;;96.60;49.33;;;3.50;99.90;;;;;;4969517;28;20038;-78
2022/12/05 00:38:39;;;;;;;88.37;45.23;;;3.50;99.90;;;;;;4982248;28;20042;-79
2022/12/05 00:41:07;;;;;;;86.77;45.97;;;3.50;99.90;;;;;;4987700;28;20049;-78
2022/12/05 00:43:33;;;;;;;88.97;46.03;;;3.50;99.90;;;;;;4971526;28;20405;-80
2022/12/05 00:46:05;;;;;;;70.33;38.67;;;3.50;99.90;;;;;;4985580;28;20061;-79
2022/12/05 00:48:32;;;;;;;79.70;41.22;;;3.50;99.90;;;;;;4964665;28;20034;-79
2022/12/05 00:51:14;;;;;;;84.47;42.53;;;3.50;99.90;;;;;;4955085;28;20038;-79
2022/12/05 00:53:41;;;;;;;110.53;50.50;;;3.50;99.90;;;;;;4987933;28;20536;-79
2022/12/05 00:56:16;;;;;;;90.40;45.25;;;3.50;99.90;;;;;;4982721;28;20533;-80
2022/12/05 00:58:43;;;;;;;81.07;43.28;;;3.50;99.90;;;;;;4983047;28;20061;-79
2022/12/05 01:01:25;;;;;;;70.43;37.83;;;3.50;99.90;;;;;;4987596;28;20041;-80
2022/12/05 01:03:55;;;;;;;74.77;40.00;;;3.50;99.90;;;;;;4999812;28;20417;-80
2022/12/05 01:06:23;;;;;;;84.00;47.70;;;3.50;99.90;;;;;;4996220;28;20042;-79
2022/12/05 01:08:51;;;;;;;76.47;40.35;;;3.50;99.90;;;;;;4955095;28;20049;-80
2022/12/05 01:11:18;;;;;;;75.77;42.13;;;3.50;99.90;;;;;;4971203;28;20046;-80
2022/12/05 01:13:45;;;;;;;92.47;48.97;;;3.60;99.90;;;;;;4971392;28;20042;-80
2022/12/05 01:16:17;;;;;;;70.33;39.13;;;3.60;99.90;;;;;;4981661;28;20061;-79
2022/12/05 01:18:44;;;;;;;93.22;49.20;;;3.60;99.90;;;;;;4980918;28;20529;-79
2022/12/05 01:21:11;;;;;;;87.43;46.17;;;3.60;99.90;;;;;;4987894;28;20035;-79
2022/12/05 01:23:37;;;;;;;85.40;46.87;;;3.60;99.90;;;;;;5002050;28;20030;-78
2022/12/05 01:26:06;;;;;;;84.73;45.67;;;3.60;99.90;;;;;;4976694;28;20076;-79
2022/12/05 01:28:34;;;;;;;81.23;44.80;;;3.60;99.90;;;;;;4980156;28;20416;-79
2022/12/05 01:31:06;;;;;;;70.73;38.53;;;3.60;99.90;;;;;;4986587;28;20046;-78
2022/12/05 01:33:33;;;;;;;89.30;45.28;;;3.60;99.90;;;;;;4984987;28;20053;-80
2022/12/05 01:36:01;;;;;;;74.70;38.80;;;3.60;99.90;;;;;;5000609;28;20050;-78
2022/12/05 01:38:28;;;;;;;84.77;45.13;;;3.60;99.90;;;;;;4964815;28;20050;-79
2022/12/05 01:41:03;;;;;;;78.27;42.43;;;3.60;99.90;;;;;;4987494;28;20027;-79
2022/12/05 01:43:30;;;;;;;75.37;40.13;;;3.60;99.90;;;;;;4983165;28;20039;-80
2022/12/05 01:45:56;;;;;;;74.23;40.23;;;3.60;99.90;;;;;;4986449;28;20493;-78
2022/12/05 01:48:35;;;;;;;74.13;39.10;;;3.60;99.90;;;;;;4994866;28;20034;-80
2022/12/05 01:51:02;;;;;;;89.23;46.90;;;3.70;99.90;;;;;;4996578;28;20049;-80
2022/12/05 01:53:29;;;;;;;84.47;44.57;;;3.70;99.90;;;;;;4969659;28;20050;-81
2022/12/05 01:55:56;;;;;;;77.77;41.10;;;3.70;99.90;;;;;;4984012;28;20046;-79
2022/12/05 01:58:27;;;;;;;74.03;41.80;;;3.70;99.90;;;;;;4985308;28;20493;-79
2022/12/05 02:00:54;;;;;;;69.63;38.60;;;3.70;99.90;;;;;;4987111;28;20949;-80
2022/12/05 02:03:20;;;;;;;66.07;37.23;;;3.70;99.90;;;;;;4969593;28;20038;-81
2022/12/05 02:05:51;;;;;;;73.47;38.90;;;3.70;99.90;;;;;;5001716;28;20026;-79
2022/12/05 02:08:18;;;;;;;68.33;37.33;;;3.70;99.90;;;;;;4963901;28;20050;-81
2022/12/05 02:10:53;;;;;;;64.43;37.75;;;3.70;99.90;;;;;;4970693;28;20039;-81
2022/12/05 02:13:37;;;;;;;69.13;37.90;;;3.70;99.90;;;;;;4970916;28;20041;-81
2022/12/05 02:16:40;;;;;;;66.33;36.07;;;3.70;99.90;;;;;;4999100;28;20072;-81
2022/12/05 02:19:28;;;;;;;79.20;41.95;;;3.80;99.90;;;;;;4986278;28;20049;-82
2022/12/05 02:22:27;;;;;;;80.10;43.30;;;3.70;99.90;;;;;;4983150;28;20049;-80
2022/12/05 02:25:13;;;;;;;68.88;38.50;;;3.80;99.90;;;;;;4983358;28;20354;-80
2022/12/05 02:27:48;;;;;;;67.70;37.07;;;3.80;99.90;;;;;;4997123;28;20045;-80
2022/12/05 02:30:23;;;;;;;65.87;34.93;;;3.80;99.90;;;;;;4988970;28;20053;-81
2022/12/05 02:32:49;;;;;;;67.27;36.10;;;3.70;99.90;;;;;;4988536;28;20045;-80
2022/12/05 02:35:48;;;;;;;67.72;37.33;;;3.80;99.90;;;;;;4990699;28;20026;-83
2022/12/05 02:38:31;;;;;;;74.70;39.47;;;3.80;99.90;;;;;;4967608;28;20061;-81
2022/12/05 02:41:11;;;;;;;67.67;38.33;;;3.80;99.90;;;;;;4989226;28;20037;-81
2022/12/05 02:43:51;;;;;;;73.17;40.37;;;3.80;99.90;;;;;;4990342;28;20392;-83
2022/12/05 02:46:21;;;;;;;77.63;40.53;;;3.80;99.90;;;;;;4985395;28;20050;-80
2022/12/05 02:48:54;;;;;;;67.40;36.13;;;3.80;99.90;;;;;;4997209;28;20508;-81
2022/12/05 02:51:24;;;;;;;68.80;37.60;;;3.90;99.90;;;;;;4969952;28;20045;-83
2022/12/05 02:53:52;;;;;;;60.10;33.90;;;3.90;99.90;;;;;;4986415;28;20772;-83
2022/12/05 02:56:19;;;;;;;74.30;41.90;;;3.90;99.90;;;;;;5000055;28;20057;-81
2022/12/05 02:58:53;;;;;;;74.25;40.67;;;3.90;99.90;;;;;;4984743;28;20042;-82
2022/12/05 03:01:29;;;;;;;73.85;39.72;;;3.90;99.90;;;;;;4990056;28;20046;-83
2022/12/05 03:03:58;;;;;;;60.72;34.30;;;3.90;99.90;;;;;;4988133;28;20061;-82
2022/12/05 03:06:41;;;;;;;59.27;35.20;;;3.90;99.90;;;;;;4985329;28;20038;-84
2022/12/05 03:09:14;;;;;;;68.00;35.97;;;3.90;99.90;;;;;;4989700;28;20034;-83
2022/12/05 03:11:48;;;;;;;66.60;37.75;;;3.90;99.90;;;;;;4990507;28;20038;-81
2022/12/05 03:14:21;;;;;;;65.87;35.50;;;3.90;99.90;;;;;;5004826;28;20035;-83
2022/12/05 03:16:56;;;;;;;54.63;29.90;;;3.90;99.90;;;;;;4965427;28;20062;-83
2022/12/05 03:19:34;;;;;;;76.85;42.22;;;3.90;99.90;;;;;;4988180;28;20046;-80
2022/12/05 03:22:07;;;;;;;80.23;40.97;;;3.90;99.90;;;;;;4971997;28;20736;-83
2022/12/05 03:24:40;;;;;;;69.95;37.38;;;3.90;99.90;;;;;;4994236;28;20378;-81
2022/12/05 03:27:32;;;;;;;73.83;39.57;;;3.90;99.90;;;;;;4958224;28;20046;-82
2022/12/05 03:30:06;;;;;;;88.13;44.60;;;3.90;99.90;;;;;;4987723;28;20034;-82
2022/12/05 03:32:37;;;;;;;66.47;37.07;;;3.90;99.90;;;;;;4972583;28;20030;-82
2022/12/05 03:35:06;;;;;;;71.97;38.60;;;3.90;99.90;;;;;;5004389;28;20026;-83
2022/12/05 03:37:59;;;;;;;65.83;35.77;;;3.90;99.90;;;;;;4980135;28;20936;-83
2022/12/05 03:40:31;;;;;;;67.30;37.50;;;4.00;99.90;;;;;;4969559;28;20046;-82
2022/12/05 03:43:29;;;;;;;58.27;31.43;;;4.00;99.90;;;;;;4988738;28;20030;-78
2022/12/05 03:46:07;;;;;;;72.23;37.37;;;4.00;99.90;;;;;;4987093;28;20417;-79
2022/12/05 03:48:56;;;;;;;66.50;36.47;;;4.00;99.90;;;;;;4982263;28;20065;-80
2022/12/05 03:51:31;;;;;;;66.50;37.97;;;4.00;99.90;;;;;;4988196;28;20050;-82
2022/12/05 03:54:02;;;;;;;74.70;37.93;;;4.00;99.90;;;;;;4971742;28;20041;-84
2022/12/05 03:56:35;;;;;;;60.35;36.25;;;4.00;99.90;;;;;;4963296;28;20054;-78
2022/12/05 03:59:10;;;;;;;61.22;35.40;;;4.00;99.90;;;;;;4986721;28;20030;-78
2022/12/05 04:01:40;;;;;;;64.63;35.78;;;4.00;99.90;;;;;;4969511;28;20034;-81
2022/12/05 04:04:16;;;;;;;63.53;34.65;;;4.00;99.90;;;;;;4992371;28;20397;-83
2022/12/05 04:06:46;;;;;;;73.72;39.53;;;4.00;99.90;;;;;;4979239;28;20594;-83
2022/12/05 04:09:30;;;;;;;76.20;40.97;;;4.00;99.90;;;;;;5003578;28;20723;-83
2022/12/05 04:12:01;;;;;;;59.77;33.80;;;4.00;99.90;;;;;;4987759;28;20049;-83
2022/12/05 04:14:36;;;;;;;70.83;37.80;;;4.00;99.90;;;;;;4984678;28;20370;-83
2022/12/05 04:17:08;;;;;;;77.63;40.70;;;4.00;99.90;;;;;;4994977;28;20030;-82
2022/12/05 04:22:33;;;;;;;63.72;37.25;;;4.10;99.90;;;;;;5002119;28;20045;-82
2022/12/05 04:28:03;;;;;;;69.97;38.10;;;4.10;99.90;;;;;;4995468;28;20042;-81
2022/12/05 04:30:41;;;;;;;102.60;47.40;;;4.10;99.90;;;;;;5001077;28;20499;-82
2022/12/05 04:33:14;;;;;;;75.03;38.93;;;4.10;99.90;;;;;;5003497;28;20037;-83
2022/12/05 04:35:56;;;;;;;69.70;38.47;;;4.10;99.90;;;;;;4986988;28;20045;-82
2022/12/05 04:38:41;;;;;;;76.90;40.93;;;4.10;99.90;;;;;;4964218;28;20405;-83
2022/12/05 04:41:23;;;;;;;76.75;40.67;;;4.10;99.90;;;;;;4971811;28;20037;-81
2022/12/05 04:43:52;;;;;;;64.20;37.08;;;4.10;99.90;;;;;;4972183;28;20053;-82
2022/12/05 04:46:21;;;;;;;54.67;33.13;;;4.10;99.90;;;;;;4982344;28;20041;-79
2022/12/05 04:49:01;;;;;;;62.83;35.65;;;4.10;99.90;;;;;;4974148;28;20030;-84
2022/12/05 04:51:33;;;;;;;55.70;33.42;;;4.10;99.90;;;;;;4967892;28;20041;-83
2022/12/05 04:54:18;;;;;;;88.17;45.70;;;4.10;99.90;;;;;;4984538;28;20026;-82
2022/12/05 04:56:47;;;;;;;57.33;33.10;;;4.10;99.90;;;;;;4977763;28;20584;-84
2022/12/05 04:59:14;;;;;;;59.58;34.28;;;4.20;99.90;;;;;;4985485;28;20057;-83
2022/12/05 05:01:49;;;;;;;55.63;33.47;;;4.20;99.90;;;;;;4988409;28;20030;-84
2022/12/05 05:04:30;;;;;;;58.10;34.15;;;4.20;99.90;;;;;;4986233;28;20038;-84
2022/12/05 05:06:56;;;;;;;58.47;34.58;;;4.20;99.90;;;;;;4978705;28;20046;-82
2022/12/05 05:09:23;;;;;;;64.63;36.03;;;4.20;99.90;;;;;;4986471;28;20335;-83
2022/12/05 05:11:49;;;;;;;64.35;36.22;;;4.20;99.90;;;;;;4986570;28;20026;-82
2022/12/05 05:14:16;;;;;;;61.58;36.38;;;4.20;99.90;;;;;;4987230;28;20034;-81
2022/12/05 05:16:43;;;;;;;64.35;35.35;;;4.20;99.90;;;;;;4977201;28;20512;-81
2022/12/05 05:19:10;;;;;;;60.63;36.25;;;4.20;99.90;;;;;;4986660;28;20038;-82
2022/12/05 05:21:39;;;;;;;58.67;33.83;;;4.20;99.90;;;;;;4969670;28;20465;-82
2022/12/05 05:24:08;;;;;;;66.40;37.00;;;4.20;99.90;;;;;;4954208;28;20057;-82
2022/12/05 05:26:37;;;;;;;83.13;43.97;;;4.20;99.90;;;;;;4978727;28;20034;-81
2022/12/05 05:29:04;;;;;;;61.60;36.67;;;4.20;99.90;;;;;;4969040;28;20034;-82
2022/12/05 05:31:31;;;;;;;55.00;33.30;;;4.30;99.90;;;;;;4987129;28;20388;-81
2022/12/05 05:33:57;;;;;;;66.03;36.85;;;4.30;99.90;;;;;;4985947;28;20030;-82
2022/12/05 05:36:25;;;;;;;54.83;32.42;;;4.20;99.90;;;;;;4982080;28;20073;-82
2022/12/05 05:38:54;;;;;;;68.88;38.67;;;4.30;99.90;;;;;;4966513;28;20378;-83
2022/12/05 05:41:25;;;;;;;66.13;36.43;;;4.30;99.90;;;;;;4970764;28;20374;-83
2022/12/05 05:43:52;;;;;;;57.20;33.80;;;4.30;99.90;;;;;;4986264;28;20041;-80
2022/12/05 05:46:22;;;;;;;65.33;37.37;;;4.30;99.90;;;;;;4968451;28;20034;-82
2022/12/05 05:48:49;;;;;;;56.20;34.22;;;4.30;99.90;;;;;;4982721;28;20046;-82
2022/12/05 05:51:16;;;;;;;54.27;31.73;;;4.30;99.90;;;;;;4970799;28;20034;-82
2022/12/05 05:53:42;;;;;;;72.32;41.08;;;4.30;99.90;;;;;;4970017;28;20046;-82
2022/12/05 05:56:11;;;;;;;58.10;35.60;;;4.30;99.90;;;;;;4982036;28;20030;-81
2022/12/05 05:58:38;;;;;;;53.67;32.70;;;4.30;99.90;;;;;;4979543;28;20053;-83
2022/12/05 06:01:08;;;;;;;51.75;32.90;;;4.30;99.90;;;;;;4970512;28;20471;-80
2022/12/05 06:03:38;;;;;;;48.83;31.20;;;4.30;99.90;;;;;;4973704;28;20474;-83
2022/12/05 06:06:07;;;;;;;52.90;32.38;;;4.40;99.90;;;;;;4956882;28;20304;-79
2022/12/05 06:08:36;;;;;;;45.22;27.98;;;4.40;99.90;;;;;;4983410;28;20564;-80
2022/12/05 06:11:08;;;;;;;52.83;33.05;;;4.40;99.90;;;;;;5000368;28;20034;-83
2022/12/05 06:13:34;;;;;;;56.50;34.65;;;4.40;99.90;;;;;;4985769;28;20369;-81
2022/12/05 06:16:03;;;;;;;49.47;31.75;;;4.40;99.90;;;;;;4969590;28;20424;-82
2022/12/05 06:18:29;;;;;;;60.55;35.38;;;4.40;99.90;;;;;;4983814;28;20046;-84
2022/12/05 06:20:57;;;;;;;51.15;33.22;;;4.40;99.90;;;;;;4974713;28;20027;-83
2022/12/05 06:23:25;;;;;;;61.65;36.28;;;4.50;99.90;;;;;;4954859;28;20507;-80
2022/12/05 06:25:53;;;;;;;51.67;32.47;;;4.50;99.90;;;;;;4958077;28;20389;-78
2022/12/05 06:28:22;;;;;;;64.33;36.47;;;4.40;99.90;;;;;;4966679;28;20046;-80
2022/12/05 06:30:48;;;;;;;74.70;42.55;;;4.50;99.90;;;;;;4989791;28;20042;-81
2022/12/05 06:33:15;;;;;;;53.95;33.05;;;4.40;99.90;;;;;;4987747;28;20034;-82
2022/12/05 06:35:42;;;;;;;51.95;31.17;;;4.50;99.90;;;;;;4970078;28;20030;-80
2022/12/05 06:38:09;;;;;;;51.17;32.23;;;4.40;99.90;;;;;;4981424;28;20038;-80
2022/12/05 06:40:45;;;;;;;51.87;32.97;;;4.40;99.90;;;;;;4982498;28;20039;-81
2022/12/05 06:43:14;;;;;;;49.65;31.75;;;4.40;99.90;;;;;;4973769;28;20035;-82
2022/12/05 06:45:40;;;;;;;45.28;28.73;;;4.40;99.90;;;;;;5005599;28;20053;-84
2022/12/05 06:48:07;;;;;;;44.90;29.70;;;4.50;99.90;;;;;;4997535;28;20042;-82
2022/12/05 06:50:38;;;;;;;53.87;34.30;;;4.40;99.90;;;;;;4989717;28;20379;-82
2022/12/05 06:53:05;;;;;;;47.17;30.40;;;4.40;99.90;;;;;;4987157;28;20803;-83
2022/12/05 06:55:38;;;;;;;51.78;30.55;;;4.40;99.90;;;;;;4971326;28;20050;-82
2022/12/05 06:58:19;;;;;;;46.97;28.85;;;4.40;99.90;;;;;;4964437;28;20034;-83
2022/12/05 07:04:01;;;;;;;57.53;36.78;;;4.50;99.90;;;;;;5004583;28;20030;-82
2022/12/05 07:06:57;;;;;;;50.08;32.13;;;4.50;99.90;;;;;;4971079;28;20042;-79
2022/12/05 07:10:22;;;;;;;52.53;32.30;;;4.50;99.90;;;;;;4988936;28;20038;-81
2022/12/05 07:12:19;;;;;;;58.25;35.70;;;4.50;99.90;;;;;;4983708;28;20485;-78
2022/12/05 07:14:46;;;;;;;61.55;37.05;;;4.50;99.90;;;;;;4972242;28;20397;-81
2022/12/05 07:17:19;;;;;;;;;;;4.50;99.90;;;;;;4966505;28;20034;-81
2022/12/05 07:20:03;;;;;;;48.33;32.17;;;4.50;99.90;;;;;;4977842;28;19906;-83
2022/12/05 07:22:45;;;;;;;50.35;31.67;;;4.40;99.90;;;;;;4972080;28;20527;-80
2022/12/05 07:25:22;;;;;;;47.58;29.98;;;4.50;99.90;;;;;;4987835;28;20503;-81
2022/12/05 07:27:53;;;;;;;46.72;30.13;;;4.40;99.90;;;;;;4995292;28;20050;-81
2022/12/05 07:30:25;;;;;;;45.65;30.80;;;4.50;99.90;;;;;;4969462;28;20030;-81
2022/12/05 07:33:12;;;;;;;47.60;31.97;;;4.50;99.90;;;;;;4975248;28;20254;-83
2022/12/05 07:35:41;;;;;;;46.97;30.25;;;4.50;99.90;;;;;;4986518;28;20417;-84
2022/12/05 07:38:46;;;;;;;57.20;35.33;;;4.50;99.90;;;;;;4966091;28;20353;-82
2022/12/05 07:42:03;;;;;;;44.38;28.67;;;4.50;99.90;;;;;;4988688;28;20405;-85
2022/12/05 07:44:35;;;;;;;40.87;27.60;;;4.50;99.90;;;;;;4984438;28;20046;-84
2022/12/05 07:47:02;;;;;;;49.83;33.03;;;4.50;99.90;;;;;;4963142;28;20045;-84
2022/12/05 07:49:29;;;;;;;47.70;31.55;;;4.50;99.90;;;;;;4970806;28;20417;-84
2022/12/05 07:51:56;;;;;;;43.00;26.93;;;4.50;99.90;;;;;;4972663;28;20042;-84
2022/12/05 07:54:22;;;;;;;42.03;28.00;;;4.50;99.90;;;;;;4956025;28;20030;-81
2022/12/05 07:56:51;;;;;;;46.92;30.17;;;4.50;99.90;;;;;;4961147;28;20042;-80
2022/12/05 07:59:17;;;;;;;46.53;31.58;;;4.50;99.90;;;;;;4986344;28;20047;-85
2022/12/05 08:02:02;;;;;;;50.20;33.28;;;4.50;99.90;;;;;;4987354;28;20401;-86
2022/12/05 08:04:38;;;;;;;44.78;29.55;;;4.50;99.90;;;;;;4970218;28;20725;-87
2022/12/05 08:07:16;;;;;;;38.85;26.88;;;4.50;99.90;;;;;;4979513;28;20379;-85
2022/12/05 08:10:01;;;;;;;36.80;25.50;;;4.60;99.90;;;;;;4983439;28;20026;-84
2022/12/05 08:12:36;;;;;;;52.50;32.53;;;4.60;99.90;;;;;;5003748;28;20042;-82
2022/12/05 08:15:10;;;;;;;48.35;31.75;;;4.60;99.90;;;;;;4970308;28;20310;-84
2022/12/05 08:18:01;;;;;;;41.38;28.63;;;4.60;99.90;;;;;;4973364;28;20046;-83
2022/12/05 08:20:31;;;;;;;39.65;25.40;;;4.60;99.90;;;;;;4984776;28;20457;-81
2022/12/05 08:23:00;;;;;;;44.88;28.92;;;4.60;99.90;;;;;;4987934;28;20038;-83
2022/12/05 08:25:32;;;;;;;51.93;31.37;;;4.60;99.90;;;;;;4984110;28;20049;-83
2022/12/05 08:28:08;;;;;;;47.08;30.15;;;4.60;99.90;;;;;;4976281;28;20034;-83
2022/12/05 08:30:37;;;;;;;47.22;29.02;;;4.60;99.90;;;;;;4984379;28;20138;-81
2022/12/05 08:33:06;;;;;;;43.90;30.63;;;4.70;99.90;;;;;;4985968;28;20038;-82
2022/12/05 08:35:42;;;;;;;42.85;28.85;;;4.70;99.90;;;;;;4987641;28;20065;-83
2022/12/05 08:38:11;;;;;;;47.53;28.83;;;4.70;99.90;;;;;;4989241;28;20042;-82
2022/12/05 08:40:40;;;;;;;56.22;33.92;;;4.70;99.90;;;;;;4962579;28;20039;-82
2022/12/05 08:43:09;;;;;;;46.75;29.52;;;4.70;99.90;;;;;;4987151;28;20038;-83
2022/12/05 08:45:35;;;;;;;50.53;31.85;;;4.70;99.90;;;;;;4971239;28;20038;-81
2022/12/05 08:48:04;;;;;;;48.88;30.60;;;4.70;99.90;;;;;;4978739;28;20389;-81
2022/12/05 08:50:31;;;;;;;46.58;27.40;;;4.70;99.90;;;;;;4967492;28;20496;-84
2022/12/05 08:53:01;;;;;;;51.10;32.28;;;4.70;99.90;;;;;;5002314;28;20042;-81
2022/12/05 08:55:38;;;;;;;46.90;29.33;;;4.70;99.90;;;;;;4971465;28;20508;-82
2022/12/05 08:58:05;;;;;;;47.10;27.73;;;4.80;99.90;;;;;;4992864;28;20393;-82
2022/12/05 09:00:37;;;;;;;49.70;29.70;;;4.80;99.90;;;;;;4970948;28;20436;-84
2022/12/05 09:03:12;;;;;;;49.63;31.15;;;4.80;99.90;;;;;;4984195;28;20042;-85
2022/12/05 09:05:48;;;;;;;45.65;28.55;;;4.80;99.90;;;;;;4987278;28;20049;-86
2022/12/05 09:08:17;;;;;;;50.30;29.33;;;4.80;99.90;;;;;;4977517;28;20045;-79
2022/12/05 09:10:51;;;;;;;68.75;40.05;;;4.80;99.90;;;;;;4985682;28;20038;-83
2022/12/05 09:13:35;;;;;;;55.13;32.95;;;4.80;99.90;;;;;;4988077;28;20041;-82
2022/12/05 09:16:10;;;;;;;58.30;35.05;;;4.90;99.90;;;;;;4968571;28;20054;-81
2022/12/05 09:18:42;;;;;;;63.65;33.67;;;4.80;99.90;;;;;;4964414;28;20041;-80
2022/12/05 09:21:20;;;;;;;59.30;33.80;;;4.80;99.90;;;;;;4970362;28;20057;-82
2022/12/05 09:23:56;;;;;;;53.60;30.42;;;4.80;99.90;;;;;;5001533;28;20033;-84
2022/12/05 09:26:35;;;;;;;55.90;31.38;;;4.80;99.90;;;;;;4979718;28;20050;-81
2022/12/05 09:29:35;;;;;;;;;;;;;;;;;;;;;
2022/12/05 09:32:10;;;;;;;62.40;34.22;;;4.90;99.90;;;;;;5002895;28;20039;-82
2022/12/05 09:34:46;;;;;;;50.58;28.85;;;4.90;99.90;;;;;;5000739;28;20420;-82
2022/12/05 09:37:20;;;;;;;50.72;29.13;;;4.90;99.90;;;;;;4975839;28;20812;-81
2022/12/05 09:39:47;;;;;;;63.22;32.03;;;4.90;99.90;;;;;;4967838;28;20050;-81
2022/12/05 09:42:32;;;;;;;55.28;30.35;;;4.90;99.90;;;;;;4969446;28;20041;-81
2022/12/05 09:45:07;;;;;;;55.13;29.80;;;4.90;99.90;;;;;;5001857;28;20409;-81
2022/12/05 09:47:47;;;;;;;49.40;27.30;;;4.90;99.90;;;;;;4976083;28;20041;-82
2022/12/05 09:50:29;;;;;;;56.85;31.00;;;4.90;99.90;;;;;;4966550;28;20512;-81
2022/12/05 09:53:08;;;;;;;69.32;35.40;;;5.00;99.90;;;;;;4972111;28;20294;-82
2022/12/05 09:55:43;;;;;;;57.38;28.88;;;5.00;99.90;;;;;;4984361;28;20057;-82
2022/12/05 09:58:31;;;;;;;46.53;25.88;;;5.00;99.90;;;;;;4959040;28;20386;-82
2022/12/05 10:01:44;;;;;;;50.20;27.40;;;5.00;99.90;;;;;;4961006;28;20126;-81
2022/12/05 10:05:10;;;;;;;58.47;31.65;;;5.00;99.90;;;;;;4975386;28;20034;-83
2022/12/05 10:07:41;;;;;;;47.22;27.08;;;5.00;99.90;;;;;;4974566;28;20041;-80
2022/12/05 10:10:37;;;;;;;52.30;30.42;;;5.00;99.90;;;;;;4982938;28;20383;-82
2022/12/05 10:13:27;;;;;;;49.20;27.13;;;5.00;99.90;;;;;;4967417;28;20057;-81
2022/12/05 10:16:07;;;;;;;59.75;32.17;;;5.00;99.90;;;;;;4967881;28;20050;-82
2022/12/05 10:18:52;;;;;;;49.92;27.17;;;5.10;99.90;;;;;;4978190;28;20288;-83
2022/12/05 10:22:03;;;;;;;43.15;24.52;;;5.10;99.90;;;;;;4969729;28;20050;-78
2022/12/05 10:24:39;;;;;;;54.10;30.38;;;5.10;99.90;;;;;;5001656;28;20073;-83
2022/12/05 10:27:18;;;;;;;48.70;27.35;;;5.10;99.90;;;;;;4961769;28;20049;-84
2022/12/05 10:29:57;;;;;;;47.78;27.55;;;5.20;99.90;;;;;;4984425;28;20492;-82
2022/12/05 10:32:30;;;;;;;51.05;28.00;;;5.20;99.90;;;;;;4970210;28;20034;-82
2022/12/05 10:35:18;;;;;;;41.40;25.40;;;5.10;99.90;;;;;;4970754;28;20034;-83
2022/12/05 10:37:51;;;;;;;44.13;25.45;;;5.20;99.90;;;;;;4976458;28;20054;-82
2022/12/05 10:40:18;;;;;;;33.42;20.08;;;5.20;99.90;;;;;;4984116;28;20049;-80
2022/12/05 10:42:45;;;;;;;40.90;22.55;;;5.20;99.90;;;;;;5001425;28;20452;-83
2022/12/05 10:45:21;;;;;;;42.67;24.88;;;5.20;99.90;;;;;;4986622;28;20047;-83
2022/12/05 10:47:52;;;;;;;38.85;22.90;;;5.20;99.90;;;;;;4977479;28;21316;-82
2022/12/05 10:50:55;;;;;;;34.55;21.23;;;5.30;99.90;;;;;;4976217;28;20039;-84
2022/12/05 10:53:42;;;;;;;38.85;23.30;;;5.30;99.90;;;;;;4978090;28;20057;-83
2022/12/05 10:56:36;;;;;;;45.83;26.30;;;5.30;99.90;;;;;;4987098;28;20042;-82
2022/12/05 10:59:03;;;;;;;43.10;24.33;;;5.30;99.90;;;;;;4987180;28;20077;-84
2022/12/05 11:01:30;;;;;;;45.33;25.50;;;5.30;99.90;;;;;;4972321;28;20038;-84
2022/12/05 11:04:20;;;;;;;44.40;25.52;;;5.30;99.90;;;;;;4987842;28;20038;-81
2022/12/05 11:07:00;;;;;;;41.88;23.70;;;5.30;99.90;;;;;;4968401;28;20134;-82
2022/12/05 11:09:36;;;;;;;41.55;23.10;;;5.30;99.90;;;;;;4985838;28;20046;-82
2022/12/05 11:12:20;;;;;;;38.55;22.27;;;5.40;99.90;;;;;;5004524;28;20045;-83
2022/12/05 11:14:53;;;;;;;37.85;23.15;;;5.40;99.90;;;;;;4973447;28;20129;-85
2022/12/05 11:17:35;;;;;;;38.53;23.75;;;5.40;99.90;;;;;;4963306;28;20042;-84
2022/12/05 11:20:21;;;;;;;39.03;22.92;;;5.40;99.90;;;;;;4988102;28;20038;-79
2022/12/05 11:22:53;;;;;;;36.72;23.35;;;5.40;99.90;;;;;;4990245;28;20417;-84
2022/12/05 11:25:24;;;;;;;35.15;20.20;;;5.40;99.90;;;;;;4970623;28;20031;-83
2022/12/05 11:27:50;;;;;;;30.35;19.48;;;5.40;99.90;;;;;;4980404;28;20034;-84
2022/12/05 11:30:20;;;;;;;29.90;19.13;;;5.50;99.90;;;;;;4988853;28;20030;-83
2022/12/05 11:32:46;;;;;;;30.65;17.73;;;5.50;99.90;;;;;;4972462;28;20382;-85
2022/12/05 11:35:12;;;;;;;30.42;19.02;;;5.60;99.90;;;;;;4971579;28;20156;-82
2022/12/05 11:37:58;;;;;;;27.48;18.55;;;5.60;99.90;;;;;;4979303;28;20381;-83
2022/12/05 11:40:38;;;;;;;30.35;18.83;;;5.70;99.90;;;;;;4952974;28;20425;-83
2022/12/05 11:43:07;;;;;;;27.85;17.90;;;5.70;99.90;;;;;;4987933;28;20038;-83
2022/12/05 11:45:48;;;;;;;29.48;18.98;;;5.70;99.90;;;;;;4978953;28;20053;-78
2022/12/05 11:49:02;;;;;;;27.33;17.90;;;5.70;99.90;;;;;;4978885;28;20041;-80
2022/12/05 11:51:47;;;;;;;27.77;16.95;;;5.70;99.90;;;;;;4996660;28;20058;-83
2022/12/05 11:54:42;;;;;;;26.08;16.45;;;5.70;99.90;;;;;;4971571;28;20512;-81
2022/12/05 11:57:25;;;;;;;25.35;17.17;;;5.70;99.90;;;;;;4980528;28;20055;-82
2022/12/05 11:59:57;;;;;;;26.00;16.95;;;5.70;99.90;;;;;;4985863;28;20401;-84
2022/12/05 12:02:42;;;;;;;24.20;16.75;;;5.70;99.90;;;;;;4987811;28;20053;-84
2022/12/05 12:05:33;;;;;;;28.10;18.20;;;5.70;99.90;;;;;;5004282;28;20038;-85
2022/12/05 12:08:16;;;;;;;20.25;14.95;;;5.80;99.90;;;;;;4979308;28;20481;-83
2022/12/05 12:10:51;;;;;;;22.25;15.60;;;5.80;99.90;;;;;;4988319;28;20717;-83
2022/12/05 12:13:17;;;;;;;23.38;16.25;;;5.80;99.90;;;;;;4988753;28;20043;-86
2022/12/05 12:16:03;;;;;;;23.60;14.93;;;5.80;99.90;;;;;;4971920;28;20502;-86
2022/12/05 12:19:07;;;;;;;23.27;14.85;;;5.80;99.90;;;;;;4966373;28;21028;-81
2022/12/05 12:22:00;;;;;;;21.02;15.65;;;5.80;99.90;;;;;;4987330;28;20046;-86
2022/12/05 12:24:58;;;;;;;21.08;14.75;;;5.80;99.90;;;;;;4988333;28;20031;-82
2022/12/05 12:27:50;;;;;;;24.02;15.82;;;5.80;99.90;;;;;;4974180;28;20042;-83
2022/12/05 12:30:55;;;;;;;20.20;14.63;;;5.90;99.90;;;;;;4985546;28;20037;-81
2022/12/05 12:33:38;;;;;;;25.45;18.20;;;5.90;99.90;;;;;;4985083;28;20488;-83
2022/12/05 12:36:04;;;;;;;;;;;5.90;99.90;;;;;;4980833;28;20038;-80
2022/12/05 12:38:59;;;;;;;23.10;16.45;;;5.90;99.90;;;;;;4962590;28;19922;-83
2022/12/05 12:41:48;;;;;;;22.15;15.88;;;5.90;99.90;;;;;;4965565;28;20041;-82
2022/12/05 12:44:36;;;;;;;27.67;17.95;;;5.90;99.90;;;;;;4985543;28;20073;-82
2022/12/05 12:55:17;;;;;;;18.92;13.52;;;6.00;99.90;;;;;;4888518;29;20511;-85
2022/12/05 12:58:02;;;;;;;18.48;13.90;;;5.90;99.90;;;;;;4969145;28;20054;-88
2022/12/05 13:00:50;;;;;;;18.65;13.38;;;5.90;99.90;;;;;;4947418;28;20528;-87
2022/12/05 13:03:37;;;;;;;21.52;16.48;;;5.90;99.90;;;;;;4968676;28;20456;-85
2022/12/05 13:06:17;;;;;;;20.08;14.48;;;6.00;99.90;;;;;;4969946;28;20038;-85
2022/12/05 13:08:51;;;;;;;17.67;13.60;;;6.00;99.90;;;;;;4981721;28;20034;-86
2022/12/05 13:11:19;;;;;;;16.50;12.52;;;6.00;99.90;;;;;;4984210;28;20034;-85
2022/12/05 13:13:52;;;;;;;18.83;13.73;;;6.00;99.90;;;;;;4962809;28;20711;-87
2022/12/05 13:16:38;;;;;;;24.52;17.77;;;6.00;99.90;;;;;;4967719;28;20395;-80
2022/12/05 13:19:08;;;;;;;19.83;13.27;;;6.00;99.90;;;;;;4971165;28;20058;-85
2022/12/05 13:21:34;;;;;;;16.95;12.27;;;6.00;99.90;;;;;;4986924;28;20501;-83
2022/12/05 13:24:02;;;;;;;14.75;12.13;;;6.00;99.90;;;;;;5000303;28;20492;-87
2022/12/05 13:26:31;;;;;;;11.45;9.88;;;6.00;99.90;;;;;;4984885;28;20057;-81
2022/12/05 13:29:01;;;;;;;10.10;6.78;;;6.00;99.90;;;;;;4985461;28;20030;-80
2022/12/05 13:31:38;;;;;;;9.50;7.80;;;6.00;99.90;;;;;;4965900;28;20038;-86
2022/12/05 13:34:34;;;;;;;9.25;7.72;;;5.90;99.90;;;;;;4985756;28;20045;-81
2022/12/05 13:43:18;;;;;;;7.95;6.03;;;5.90;99.90;;;;;;4998655;28;20050;-79